createdAt,value
2024-03-02T00:01:16.705Z,10.60
2024-03-02T00:03:46.954Z,9.43
2024-03-02T00:06:35.653Z,8.23
2024-03-02T00:09:06.060Z,12.13
2024-03-02T00:11:49.675Z,9.77
2024-03-02T00:17:25.974Z,9.85
2024-03-02T00:20:04.034Z,8.65
2024-03-02T00:22:34.229Z,10.98
2024-03-02T00:25:08.845Z,10.25
2024-03-02T00:27:36.888Z,11.38
2024-03-02T00:30:34.899Z,10.25
2024-03-02T00:33:15.656Z,11.40
2024-03-02T00:35:52.926Z,9.93
2024-03-02T00:38:26.945Z,12.52
2024-03-02T00:41:01.746Z,12.18
2024-03-02T00:43:38.661Z,9.35
2024-03-02T00:46:09.033Z,11.38
2024-03-02T00:49:03.022Z,11.57
2024-03-02T00:52:03.684Z,10.90
2024-03-02T00:54:34.056Z,10.13
2024-03-02T00:57:09.992Z,11.43
2024-03-02T00:59:43.546Z,8.63
2024-03-02T01:02:17.504Z,10.90
2024-03-02T01:04:50.820Z,8.55
2024-03-02T01:07:34.075Z,11.88
2024-03-02T01:10:13.291Z,10.55
2024-03-02T01:13:03.753Z,8.45
2024-03-02T01:15:38.702Z,10.05
2024-03-02T01:18:16.373Z,11.70
2024-03-02T01:20:57.909Z,9.43
2024-03-02T01:23:49.177Z,9.75
2024-03-02T01:26:19.724Z,9.02
2024-03-02T01:28:55.002Z,10.70
2024-03-02T01:31:23.000Z,9.00
2024-03-02T01:33:57.965Z,9.02
2024-03-02T01:37:25.511Z,8.63
2024-03-02T01:39:37.199Z,9.25
2024-03-02T01:42:22.480Z,8.32
2024-03-02T01:44:56.048Z,9.40
2024-03-02T01:47:26.472Z,8.73
2024-03-02T01:49:58.809Z,12.73
2024-03-02T01:52:31.875Z,9.88
2024-03-02T01:55:21.393Z,9.43
2024-03-02T01:57:52.818Z,9.77
2024-03-02T02:00:27.587Z,8.43
2024-03-02T02:02:59.630Z,12.00
2024-03-02T02:05:32.243Z,11.00
2024-03-02T02:08:07.879Z,9.35
2024-03-02T02:10:36.968Z,7.93
2024-03-02T02:13:10.411Z,8.45
2024-03-02T02:15:43.518Z,9.27
2024-03-02T02:18:26.539Z,8.25
2024-03-02T02:21:08.771Z,8.98
2024-03-02T02:23:43.320Z,11.48
2024-03-02T02:26:11.310Z,8.63
2024-03-02T02:28:53.051Z,8.00
2024-03-02T02:31:20.886Z,9.90
2024-03-02T02:33:48.821Z,7.55
2024-03-02T02:36:17.074Z,9.05
2024-03-02T02:39:01.957Z,7.97
2024-03-02T02:41:48.537Z,10.13
2024-03-02T02:44:28.644Z,9.93
2024-03-02T02:47:13.903Z,8.50
2024-03-02T02:49:44.583Z,12.27
2024-03-02T02:52:14.814Z,9.32
2024-03-02T02:54:43.647Z,9.55
2024-03-02T02:57:14.195Z,9.40
2024-03-02T02:59:52.220Z,9.52
2024-03-02T03:02:34.207Z,9.13
2024-03-02T03:05:09.662Z,10.02
2024-03-02T03:07:52.288Z,9.82
2024-03-02T03:10:31.679Z,10.50
2024-03-02T03:13:02.224Z,9.63
2024-03-02T03:15:44.753Z,11.70
2024-03-02T03:18:27.580Z,10.52
2024-03-02T03:20:57.672Z,10.35
2024-03-02T03:23:57.427Z,10.88
2024-03-02T03:26:18.390Z,11.02
2024-03-02T03:28:46.477Z,11.48
2024-03-02T03:31:24.333Z,11.27
2024-03-02T03:33:53.857Z,9.25
2024-03-02T03:36:26.383Z,12.13
2024-03-02T03:38:58.789Z,10.82
2024-03-02T03:41:26.715Z,10.05
2024-03-02T03:44:01.859Z,10.68
2024-03-02T03:46:29.832Z,10.02
2024-03-02T03:49:02.449Z,10.68
2024-03-02T03:51:36.692Z,9.00
2024-03-02T03:54:18.746Z,9.80
2024-03-02T03:59:29.375Z,11.70
2024-03-02T04:01:59.824Z,11.27
2024-03-02T04:04:33.830Z,10.25
2024-03-02T04:07:04.259Z,12.98
2024-03-02T04:09:38.397Z,10.88
2024-03-02T04:12:09.705Z,12.15
2024-03-02T04:14:43.820Z,11.35
2024-03-02T04:17:14.980Z,11.45
2024-03-02T04:20:05.148Z,11.07
2024-03-02T04:22:42.959Z,13.85
2024-03-02T04:27:42.509Z,11.88
2024-03-02T04:30:27.542Z,11.55
2024-03-02T04:33:06.210Z,12.65
2024-03-02T04:35:50.657Z,11.93
2024-03-02T04:38:52.987Z,13.32
2024-03-02T04:41:19.763Z,11.93
2024-03-02T04:44:12.127Z,13.18
2024-03-02T04:46:43.850Z,13.00
2024-03-02T04:49:24.349Z,11.00
2024-03-02T04:51:55.743Z,11.82
2024-03-02T04:54:29.751Z,15.65
2024-03-02T04:57:01.101Z,13.52
2024-03-02T04:59:31.488Z,11.77
2024-03-02T05:02:02.123Z,12.10
2024-03-02T05:04:37.109Z,14.20
2024-03-02T05:07:09.825Z,12.98
2024-03-02T05:09:48.647Z,13.20
2024-03-02T05:12:38.671Z,13.35
2024-03-02T05:15:23.237Z,11.45
2024-03-02T05:18:07.291Z,13.15
2024-03-02T05:20:51.422Z,15.13
2024-03-02T05:23:32.439Z,14.02
2024-03-02T05:26:05.536Z,14.23
2024-03-02T05:28:46.011Z,13.60
2024-03-02T05:31:19.594Z,14.00
2024-03-02T05:33:57.628Z,15.75
2024-03-02T05:36:25.933Z,13.85
2024-03-02T05:38:53.455Z,13.07
2024-03-02T05:41:21.052Z,15.50
2024-03-02T05:43:48.985Z,13.75
2024-03-02T05:46:17.117Z,16.25
2024-03-02T05:48:45.052Z,15.48
2024-03-02T05:51:14.172Z,11.48
2024-03-02T05:53:43.167Z,12.88
2024-03-02T05:56:18.375Z,14.25
2024-03-02T05:59:05.275Z,14.18
2024-03-02T06:01:35.642Z,13.02
2024-03-02T06:04:06.178Z,16.50
2024-03-02T06:06:37.071Z,12.90
2024-03-02T06:09:15.033Z,14.80
2024-03-02T06:11:47.502Z,17.25
2024-03-02T06:14:21.498Z,14.30
2024-03-02T06:16:54.592Z,13.35
2024-03-02T06:19:32.197Z,12.88
2024-03-02T06:22:11.477Z,18.75
2024-03-02T06:24:39.595Z,12.95
2024-03-02T06:27:17.468Z,14.68
2024-03-02T06:29:50.830Z,13.25
2024-03-02T06:32:38.981Z,12.57
2024-03-02T06:35:12.150Z,13.38
2024-03-02T06:37:54.606Z,14.70
2024-03-02T06:40:24.596Z,14.05
2024-03-02T06:43:05.325Z,12.60
2024-03-02T06:45:43.630Z,14.75
2024-03-02T06:48:26.064Z,13.27
2024-03-02T06:51:00.666Z,15.32
2024-03-02T06:53:38.917Z,14.52
2024-03-02T06:56:12.226Z,13.43
2024-03-02T06:58:46.341Z,13.38
2024-03-02T07:01:14.570Z,14.20
2024-03-02T07:03:45.355Z,14.90
2024-03-02T07:06:13.354Z,16.38
2024-03-02T07:08:46.236Z,13.00
2024-03-02T07:11:16.768Z,13.02
2024-03-02T07:13:45.179Z,13.05
2024-03-02T07:16:34.437Z,15.80
2024-03-02T07:19:03.293Z,16.25
2024-03-02T07:21:37.163Z,16.10
2024-03-02T07:24:05.309Z,16.73
2024-03-02T07:29:03.961Z,17.58
2024-03-02T07:31:31.482Z,15.25
2024-03-02T07:34:01.593Z,15.98
2024-03-02T07:36:36.439Z,18.08
2024-03-02T07:39:26.959Z,20.17
2024-03-02T07:42:04.256Z,19.35
2024-03-02T07:44:42.917Z,19.60
2024-03-02T07:47:15.003Z,20.48
2024-03-02T07:49:49.697Z,18.50
2024-03-02T07:52:25.321Z,18.70
2024-03-02T07:55:03.667Z,20.92
2024-03-02T07:57:31.552Z,17.70
2024-03-02T08:00:02.895Z,15.80
2024-03-02T08:02:40.060Z,13.93
2024-03-02T08:05:09.084Z,15.98
2024-03-02T08:07:37.178Z,15.27
2024-03-02T08:10:06.130Z,14.73
2024-03-02T08:12:33.856Z,13.25
2024-03-02T08:15:01.692Z,13.50
2024-03-02T08:17:38.169Z,13.07
2024-03-02T08:20:07.173Z,15.40
2024-03-02T08:22:37.744Z,13.10
2024-03-02T08:25:09.756Z,12.68
2024-03-02T08:27:42.270Z,18.25
2024-03-02T08:30:13.143Z,12.45
2024-03-02T08:32:43.074Z,14.70
2024-03-02T08:35:10.842Z,19.50
2024-03-02T08:37:41.182Z,17.30
2024-03-02T08:40:11.378Z,15.77
2024-03-02T08:42:39.868Z,16.73
2024-03-02T08:45:08.886Z,16.65
2024-03-02T08:47:38.745Z,13.27
2024-03-02T08:50:18.852Z,11.25
2024-03-02T08:52:55.481Z,16.95
2024-03-02T08:55:29.654Z,15.68
2024-03-02T08:58:01.846Z,13.55
2024-03-02T09:00:34.320Z,21.15
2024-03-02T09:03:02.499Z,15.05
2024-03-02T09:05:33.472Z,11.70
2024-03-02T09:08:01.240Z,12.45
2024-03-02T09:10:29.092Z,12.93
2024-03-02T09:12:58.899Z,12.75
2024-03-02T09:15:30.036Z,13.57
2024-03-02T09:17:58.536Z,15.05
2024-03-02T09:20:26.363Z,10.20
2024-03-02T09:22:56.372Z,9.05
2024-03-02T09:25:24.558Z,9.18
2024-03-02T09:27:52.421Z,10.05
2024-03-02T09:30:23.381Z,11.85
2024-03-02T09:32:51.386Z,9.55
2024-03-02T09:35:22.139Z,11.05
2024-03-02T09:37:50.504Z,15.98
2024-03-02T09:40:18.923Z,10.32
2024-03-02T09:42:52.477Z,10.65
2024-03-02T09:45:32.863Z,15.27
2024-03-02T09:48:06.817Z,12.25
2024-03-02T09:50:37.091Z,15.95
2024-03-02T09:53:08.856Z,11.85
2024-03-02T09:55:36.518Z,11.73
2024-03-02T09:58:04.311Z,12.77
2024-03-02T10:00:31.787Z,11.63
2024-03-02T10:02:59.597Z,10.95
2024-03-02T10:05:30.743Z,11.85
2024-03-02T10:08:02.063Z,15.00
2024-03-02T10:10:45.452Z,13.77
2024-03-02T10:13:14.278Z,14.20
2024-03-02T10:15:42.753Z,11.55
2024-03-02T10:18:14.301Z,11.73
2024-03-02T10:20:42.562Z,13.25
2024-03-02T10:23:14.811Z,12.63
2024-03-02T10:25:51.237Z,12.20
2024-03-02T10:28:22.771Z,11.05
2024-03-02T10:30:52.386Z,15.40
2024-03-02T10:33:20.206Z,12.68
2024-03-02T10:35:52.972Z,11.60
2024-03-02T10:38:20.484Z,13.50
2024-03-02T10:40:50.993Z,12.27
2024-03-02T10:43:20.076Z,14.68
2024-03-02T10:45:51.790Z,17.50
2024-03-02T10:48:19.437Z,16.88
2024-03-02T10:50:47.153Z,15.05
2024-03-02T10:53:14.534Z,14.50
2024-03-02T10:55:42.457Z,13.68
2024-03-02T10:58:27.201Z,14.18
2024-03-02T11:01:03.220Z,13.50
2024-03-02T11:03:50.433Z,14.98
2024-03-02T11:06:27.698Z,14.30
2024-03-02T11:09:29.439Z,15.55
2024-03-02T11:12:42.736Z,12.48
2024-03-02T11:15:20.783Z,19.80
2024-03-02T11:18:26.021Z,12.70
2024-03-02T11:28:22.894Z,11.15
2024-03-02T11:30:55.799Z,11.23
2024-03-02T11:33:28.450Z,13.27
2024-03-02T11:35:58.079Z,10.73
2024-03-02T11:38:30.410Z,12.10
2024-03-02T11:41:03.107Z,12.80
2024-03-02T14:05:55.791Z,12.50
2024-03-02T14:08:39.248Z,13.40
2024-03-02T14:11:06.642Z,14.13
2024-03-02T14:13:34.065Z,12.38
2024-03-02T14:16:01.513Z,17.15
2024-03-02T14:18:28.963Z,16.60
2024-03-02T14:20:57.329Z,16.52
2024-03-02T14:23:24.644Z,15.35
2024-03-02T14:25:51.971Z,14.30
2024-03-02T14:28:43.083Z,14.77
2024-03-02T14:31:08.037Z,16.08
2024-03-02T14:33:35.571Z,15.85
2024-03-02T14:36:03.086Z,15.38
2024-03-02T14:38:30.441Z,14.63
2024-03-02T14:40:57.847Z,12.98
2024-03-02T14:43:25.107Z,13.30
2024-03-02T14:45:52.472Z,12.93
2024-03-02T14:48:19.895Z,12.90
2024-03-02T14:50:47.238Z,13.75
2024-03-02T14:53:14.539Z,14.23
2024-03-02T14:55:41.807Z,16.23
2024-03-02T14:58:09.439Z,15.00
2024-03-02T15:00:36.809Z,11.63
2024-03-02T15:03:06.786Z,13.95
2024-03-02T15:05:34.267Z,11.52
2024-03-02T15:08:03.868Z,13.25
2024-03-02T15:10:31.699Z,15.95
2024-03-02T15:12:59.632Z,13.18
2024-03-02T15:15:27.717Z,15.13
2024-03-02T15:17:55.058Z,13.73
2024-03-02T15:20:22.810Z,11.50
2024-03-02T15:22:50.208Z,12.75
2024-03-02T15:25:17.640Z,14.52
2024-03-02T15:27:45.266Z,14.40
2024-03-02T15:30:12.987Z,13.25
2024-03-02T15:32:40.374Z,13.35
2024-03-02T15:35:08.521Z,10.68
2024-03-02T15:37:35.845Z,12.02
2024-03-02T15:40:07.599Z,11.38
2024-03-02T15:42:35.776Z,11.85
2024-03-02T17:43:52.679Z,16.50
2024-03-02T17:47:56.789Z,17.83
2024-03-02T18:00:36.319Z,21.27
2024-03-02T18:11:13.178Z,21.17
2024-03-02T18:14:28.129Z,25.88
2024-03-02T18:21:00.856Z,20.58
2024-03-02T18:32:50.387Z,17.67
2024-03-02T18:39:10.355Z,20.67
2024-03-02T18:41:46.411Z,21.15
2024-03-02T18:45:11.599Z,20.30
2024-03-02T18:54:15.128Z,27.70
2024-03-02T18:57:28.110Z,23.67
2024-03-02T19:02:04.345Z,26.20
2024-03-02T19:17:11.854Z,26.88
2024-03-02T19:18:06.615Z,26.23
2024-03-02T19:24:05.016Z,23.98
2024-03-02T19:33:34.216Z,26.17
2024-03-02T19:36:18.637Z,27.13
2024-03-02T19:39:28.380Z,26.25
2024-03-02T19:42:06.693Z,24.73
2024-03-02T19:44:44.555Z,25.00
2024-03-02T19:47:38.708Z,26.85
2024-03-02T19:50:52.349Z,23.65
2024-03-02T19:53:21.299Z,28.80
2024-03-02T19:59:15.503Z,27.85
2024-03-02T20:02:14.438Z,25.55
2024-03-02T20:02:16.772Z,27.80
2024-03-02T20:04:53.793Z,27.45
2024-03-02T20:07:25.943Z,27.58
2024-03-02T20:10:06.186Z,25.95
2024-03-02T20:12:43.574Z,29.02
2024-03-02T20:15:35.688Z,31.02
2024-03-02T20:18:15.124Z,31.90
2024-03-02T20:20:58.877Z,28.48
2024-03-02T20:23:54.052Z,28.15
2024-03-02T20:29:15.759Z,28.73
2024-03-02T20:32:01.892Z,32.70
2024-03-02T20:34:42.568Z,28.35
2024-03-02T20:37:25.552Z,32.92
2024-03-02T20:40:00.592Z,32.45
2024-03-02T20:42:39.852Z,31.50
2024-03-02T20:45:10.536Z,34.17
2024-03-02T20:47:42.942Z,32.88
2024-03-02T20:50:17.014Z,31.73
2024-03-02T20:52:53.898Z,33.38
2024-03-02T20:55:31.838Z,32.65
2024-03-02T20:58:07.948Z,31.02
2024-03-02T21:05:39.838Z,31.08
2024-03-02T21:12:19.030Z,32.90
2024-03-02T21:15:01.208Z,28.73
2024-03-02T21:17:56.287Z,28.40
2024-03-02T21:20:54.800Z,31.60
2024-03-02T21:31:35.779Z,32.35
2024-03-02T21:50:25.882Z,27.88
2024-03-02T22:09:38.027Z,31.25
2024-03-02T22:13:05.440Z,30.45
2024-03-02T22:15:37.509Z,30.48
2024-03-02T22:18:33.521Z,33.22
2024-03-02T22:21:14.450Z,35.08
2024-03-02T22:24:09.881Z,31.67
2024-03-02T22:27:03.959Z,33.85
2024-03-02T22:32:55.570Z,35.13
2024-03-02T22:36:28.916Z,31.38
2024-03-02T22:40:15.717Z,34.25
2024-03-02T22:43:04.075Z,28.70
2024-03-02T22:45:31.660Z,32.80
2024-03-02T22:48:00.177Z,37.38
2024-03-02T22:50:28.661Z,31.52
2024-03-02T22:52:55.955Z,30.42
2024-03-02T22:56:16.429Z,33.50
2024-03-02T23:01:25.845Z,33.03
2024-03-02T23:02:21.560Z,31.27
2024-03-02T23:05:22.242Z,31.52
2024-03-02T23:09:19.271Z,28.90
2024-03-02T23:11:34.585Z,31.08
2024-03-02T23:14:39.881Z,33.28
2024-03-02T23:17:25.917Z,29.83
2024-03-02T23:20:14.430Z,37.08
2024-03-02T23:23:10.894Z,33.10
2024-03-02T23:29:46.345Z,31.92
2024-03-02T23:32:42.922Z,26.95
2024-03-02T23:35:32.523Z,31.90
2024-03-02T23:38:51.234Z,27.77
2024-03-02T23:41:37.509Z,29.20
2024-03-02T23:47:17.544Z,32.03
2024-03-02T23:53:08.058Z,32.70
2024-03-02T23:55:51.839Z,29.92
2024-03-02T23:58:22.414Z,31.80
